Marshall Army Air Field
KFRI : now visible

Airfield :











YOU CAN JOIN US ON...

 
LOGIN :

Register | Disclaimer

   EN    FR    IT 

 









Legend :    VFR   Marginal VFR   IFR   Intensive IFR   Very Intensive IFR
Visi :
Ceiling :
>= 8 km
>= 3000ft
5 to 8 km
1000 to 3000 ft
1500m to 5 km
500 to 1000 ft
800 to 1500m
200 to 500 ft
< 800m
< 200 ft
Symbols :   Thunderstorms  Fog  Heavy snow  Heavy precipitations  Wind > 20 kt






- Airport Elevation : 1065 ft


KFRI - Marshall Army Air Field

CURRENT METAR :
  • 052355Z AUTO 00000KT 10SM CLR 09/M04 A3005 RMK AO2 SLP183 T00921044 10147 20092 57010 $

EXPIRED METARs :
  • 052255Z AUTO 00000KT 10SM CLR 14/M04 A3006 RMK AO2 SLP184 T01401042 $
  • 052155Z AUTO 00000KT 10SM CLR 14/M03 A3007 RMK AO2 SLP187 T01441034 $

Expired Forecast.
KZKC FIR / North America



MET'MAP, your aeronautical weather chart ! - Copyright ORBIFLY December 2007 - Disclaimer

ORBIFLY MET'MAP TEAM :

Programming & Development : Alexandra Zaïnal
Original concept : Baudouin d'Aumeries
Technical & hardware support : Manuel Goepfert
Assistance : Marc-Olivier Méhu




SOURCES & CREDITS :

   NOAA       Earth
Advisory